createdAt,value
2018-11-07T00:02:11.149Z,46.70
2018-11-07T00:04:39.440Z,46.07
2018-11-07T00:07:08.065Z,45.03
2018-11-07T00:09:36.022Z,46.83
2018-11-07T00:12:03.993Z,47.80
2018-11-07T00:14:31.959Z,46.33
2018-11-07T00:16:59.895Z,45.83
2018-11-07T00:19:28.780Z,46.73
2018-11-07T00:21:56.646Z,46.87
2018-11-07T00:24:25.133Z,47.70
2018-11-07T00:26:57.995Z,48.10
2018-11-07T00:29:26.188Z,49.70
2018-11-07T00:31:55.438Z,47.80
2018-11-07T00:34:23.341Z,50.87
2018-11-07T00:36:58.363Z,46.97
2018-11-07T00:39:27.339Z,50.20
2018-11-07T00:41:56.177Z,48.40
2018-11-07T00:44:24.823Z,47.53
2018-11-07T00:46:53.194Z,47.67
2018-11-07T00:49:21.054Z,46.03
2018-11-07T00:51:48.948Z,47.90
2018-11-07T00:54:20.353Z,49.30
2018-11-07T00:56:52.785Z,50.40
2018-11-07T00:59:22.791Z,49.83
2018-11-07T01:01:54.017Z,50.37
2018-11-07T01:04:21.960Z,44.90
2018-11-07T01:06:56.834Z,51.40
2018-11-07T01:09:25.051Z,49.90
2018-11-07T01:11:53.045Z,46.43
2018-11-07T01:14:27.071Z,48.40
2018-11-07T01:16:55.640Z,49.90
2018-11-07T01:19:26.904Z,49.47
2018-11-07T01:21:54.859Z,49.40
2018-11-07T01:24:26.549Z,48.77
2018-11-07T01:27:01.874Z,50.70
2018-11-07T01:29:35.686Z,49.33
2018-11-07T01:32:06.516Z,46.10
2018-11-07T01:34:39.406Z,47.80
2018-11-07T01:37:08.055Z,51.17
2018-11-07T01:39:36.055Z,50.90
2018-11-07T01:42:05.027Z,51.80
2018-11-07T01:44:38.405Z,49.50
2018-11-07T01:47:09.034Z,53.50
2018-11-07T01:49:42.746Z,52.30
2018-11-07T01:52:15.909Z,49.10
2018-11-07T01:54:44.449Z,48.63
2018-11-07T01:57:13.443Z,51.53
2018-11-07T01:59:43.478Z,50.00
2018-11-07T02:02:11.452Z,48.40
2018-11-07T02:04:39.697Z,51.00
2018-11-07T02:07:08.088Z,49.00
2018-11-07T02:09:36.043Z,50.33
2018-11-07T02:12:04.911Z,50.90
2018-11-07T02:14:35.810Z,51.97
2018-11-07T02:17:03.875Z,50.57
2018-11-07T02:19:31.942Z,51.03
2018-11-07T02:21:59.920Z,50.70
2018-11-07T02:24:35.905Z,48.10
2018-11-07T02:27:09.748Z,47.10
2018-11-07T02:29:37.780Z,50.53
2018-11-07T02:32:05.712Z,49.60
2018-11-07T02:34:34.561Z,50.73
2018-11-07T02:37:06.340Z,53.57
2018-11-07T02:39:34.305Z,52.50
2018-11-07T02:42:02.311Z,49.03
2018-11-07T02:44:34.233Z,50.83
2018-11-07T02:47:02.712Z,54.93
2018-11-07T02:49:31.054Z,52.37
2018-11-07T02:51:59.582Z,51.20
2018-11-07T02:54:27.507Z,50.43
2018-11-07T02:56:55.469Z,52.50
2018-11-07T02:59:23.474Z,51.63
2018-11-07T03:01:51.355Z,50.50
2018-11-07T03:04:21.958Z,51.13
2018-11-07T03:06:53.313Z,54.27
2018-11-07T03:09:21.566Z,54.20
2018-11-07T03:11:54.320Z,51.90
2018-11-07T03:14:25.198Z,51.80
2018-11-07T03:16:53.565Z,51.80
2018-11-07T03:19:21.637Z,51.43
2018-11-07T03:21:49.847Z,51.67
2018-11-07T03:24:19.094Z,53.07
2018-11-07T03:26:46.993Z,49.80
2018-11-07T03:29:14.975Z,53.70
2018-11-07T03:31:42.914Z,55.50
2018-11-07T03:34:13.351Z,50.70
2018-11-07T03:36:48.401Z,51.43
2018-11-07T03:39:16.679Z,54.17
2018-11-07T03:41:44.549Z,53.93
2018-11-07T03:44:19.220Z,56.60
2018-11-07T03:46:48.435Z,52.53
2018-11-07T03:49:16.359Z,55.83
2018-11-07T03:51:44.640Z,54.37
2018-11-07T03:54:13.108Z,55.50
2018-11-07T03:56:40.972Z,56.33
2018-11-07T03:59:09.561Z,55.20
2018-11-07T04:01:37.524Z,54.80
2018-11-07T04:04:08.299Z,59.57
2018-11-07T04:06:36.367Z,54.87
2018-11-07T04:09:07.756Z,53.20
2018-11-07T04:11:35.957Z,53.43
2018-11-07T04:14:03.901Z,57.17
2018-11-07T04:16:31.877Z,53.90
2018-11-07T04:19:08.844Z,57.33
2018-11-07T04:21:37.177Z,51.90
2018-11-07T04:24:05.930Z,54.80
2018-11-07T04:26:35.643Z,53.73
2018-11-07T04:29:06.814Z,55.73
2018-11-07T04:31:34.838Z,55.63
2018-11-07T04:34:03.268Z,56.17
2018-11-07T04:36:31.246Z,55.47
2018-11-07T04:38:59.348Z,63.07
2018-11-07T04:41:27.867Z,56.70
2018-11-07T04:43:56.353Z,57.63
2018-11-07T04:46:24.227Z,55.60
2018-11-07T04:48:52.116Z,60.30
2018-11-07T04:51:19.984Z,55.63
2018-11-07T04:53:47.944Z,56.63
2018-11-07T04:56:15.853Z,55.03
2018-11-07T04:58:45.184Z,57.47
2018-11-07T05:01:13.140Z,56.57
2018-11-07T05:03:41.985Z,54.57
2018-11-07T05:06:09.870Z,57.57
2018-11-07T05:08:39.298Z,54.60
2018-11-07T05:11:07.198Z,56.60
2018-11-07T05:13:36.406Z,55.83
2018-11-07T05:16:04.523Z,54.37
2018-11-07T05:18:33.319Z,54.00
2018-11-07T05:21:03.193Z,55.77
2018-11-07T05:23:32.856Z,54.43
2018-11-07T05:26:01.043Z,56.07
2018-11-07T05:28:29.141Z,56.57
2018-11-07T05:30:57.073Z,55.87
2018-11-07T05:33:24.975Z,57.10
2018-11-07T05:35:52.908Z,57.43
2018-11-07T05:38:22.516Z,54.03
2018-11-07T05:40:50.779Z,55.33
2018-11-07T05:43:18.721Z,56.37
2018-11-07T05:45:46.704Z,56.77
2018-11-07T05:48:14.772Z,58.80
2018-11-07T05:50:42.664Z,54.73
2018-11-07T05:53:11.685Z,57.83
2018-11-07T05:55:39.755Z,55.10
2018-11-07T05:58:07.659Z,56.80
2018-11-07T06:00:35.643Z,62.90
2018-11-07T06:03:03.607Z,57.77
2018-11-07T06:05:32.438Z,57.93
2018-11-07T06:08:00.541Z,54.83
2018-11-07T06:10:41.951Z,55.87
2018-11-07T06:13:10.541Z,59.93
2018-11-07T06:15:39.074Z,59.67
2018-11-07T06:18:07.868Z,63.57
2018-11-07T06:20:42.325Z,60.77
2018-11-07T06:23:11.766Z,61.60
2018-11-07T06:25:43.013Z,57.10
2018-11-07T06:28:21.818Z,59.70
2018-11-07T06:30:50.998Z,62.83
2018-11-07T06:33:19.367Z,57.80
2018-11-07T06:35:51.969Z,56.60
2018-11-07T06:38:20.466Z,59.90
2018-11-07T06:40:50.022Z,60.20
2018-11-07T06:43:18.159Z,56.97
2018-11-07T06:45:46.987Z,60.03
2018-11-07T06:48:15.009Z,62.53
2018-11-07T06:50:49.237Z,60.90
2018-11-07T06:53:17.175Z,59.53
2018-11-07T06:55:48.454Z,61.40
2018-11-07T06:58:16.820Z,56.70
2018-11-07T07:00:44.775Z,61.57
2018-11-07T07:03:12.908Z,62.30
2018-11-07T07:05:40.844Z,58.57
2018-11-07T07:08:08.767Z,68.60
2018-11-07T07:10:36.873Z,62.63
2018-11-07T07:13:06.661Z,62.27
2018-11-07T07:15:34.887Z,65.00
2018-11-07T07:18:02.942Z,61.50
2018-11-07T07:20:30.830Z,64.30
2018-11-07T07:23:05.968Z,61.63
2018-11-07T07:25:34.045Z,66.83
2018-11-07T07:28:03.549Z,60.60
2018-11-07T07:30:31.756Z,65.73
2018-11-07T07:32:59.741Z,63.07
2018-11-07T07:35:33.541Z,62.20
2018-11-07T07:38:01.709Z,63.57
2018-11-07T07:40:30.477Z,63.20
2018-11-07T07:42:59.064Z,62.93
2018-11-07T07:45:30.252Z,64.60
2018-11-07T07:48:05.525Z,61.77
2018-11-07T07:50:34.446Z,66.20
2018-11-07T07:53:03.707Z,64.90
2018-11-07T07:55:35.403Z,61.30
2018-11-07T07:58:04.393Z,64.57
2018-11-07T08:00:36.143Z,63.13
2018-11-07T08:03:04.525Z,64.83
2018-11-07T08:05:32.499Z,70.03
2018-11-07T08:08:00.976Z,71.23
2018-11-07T08:10:29.399Z,66.50
2018-11-07T08:12:57.366Z,71.10
2018-11-07T08:15:25.360Z,65.33
2018-11-07T08:17:53.253Z,63.70
2018-11-07T08:20:21.226Z,71.40
2018-11-07T08:22:50.420Z,71.10
2018-11-07T08:25:18.404Z,66.70
2018-11-07T08:27:48.085Z,68.70
2018-11-07T08:30:21.176Z,66.30
2018-11-07T08:32:58.519Z,77.83
2018-11-07T08:35:32.504Z,68.70
2018-11-07T08:38:01.769Z,71.47
2018-11-07T08:40:37.752Z,72.07
2018-11-07T08:43:08.287Z,68.43
2018-11-07T08:45:42.438Z,72.63
2018-11-07T08:48:10.555Z,72.50
2018-11-07T08:50:42.417Z,69.30
2018-11-07T08:53:10.953Z,74.07
2018-11-07T08:55:46.154Z,82.33
2018-11-07T08:58:14.083Z,80.93
2018-11-07T09:00:47.604Z,77.50
2018-11-07T09:03:16.857Z,76.07
2018-11-07T09:05:45.011Z,75.00
2018-11-07T09:08:13.152Z,76.50
2018-11-07T09:10:41.140Z,76.77
2018-11-07T09:13:10.609Z,68.53
2018-11-07T09:15:38.982Z,67.20
2018-11-07T09:18:10.588Z,68.30
2018-11-07T09:20:47.749Z,73.93
2018-11-07T09:23:17.090Z,69.67
2018-11-07T09:25:56.465Z,73.47
2018-11-07T09:28:24.756Z,73.90
2018-11-07T09:30:52.728Z,76.33
2018-11-07T09:33:22.882Z,77.60
2018-11-07T09:35:51.103Z,79.40
2018-11-07T09:38:20.125Z,72.70
2018-11-07T09:40:52.316Z,78.23
2018-11-07T09:43:23.058Z,75.47
2018-11-07T09:45:52.193Z,67.53
2018-11-07T09:48:22.217Z,78.70
2018-11-07T09:50:53.417Z,76.07
2018-11-07T09:53:23.535Z,73.57
2018-11-07T09:55:53.193Z,74.30
2018-11-07T09:58:21.237Z,72.70
2018-11-07T10:00:51.812Z,71.73
2018-11-07T10:03:25.032Z,74.83
2018-11-07T10:05:53.565Z,76.10
2018-11-07T10:08:21.601Z,73.13
2018-11-07T10:10:51.345Z,68.63
2018-11-07T10:16:01.349Z,73.10
2018-11-07T10:18:30.198Z,66.00
2018-11-07T10:21:02.046Z,70.87
2018-11-07T10:23:31.372Z,75.40
2018-11-07T10:25:59.977Z,70.63
2018-11-07T10:28:31.008Z,75.90
2018-11-07T10:30:59.893Z,72.60
2018-11-07T10:33:28.182Z,72.03
2018-11-07T10:36:04.741Z,66.00
2018-11-07T10:38:33.514Z,68.50
2018-11-07T10:41:04.515Z,68.77
2018-11-07T10:43:38.360Z,71.97
2018-11-07T10:46:07.149Z,64.87
2018-11-07T10:48:35.446Z,75.50
2018-11-07T10:51:07.217Z,70.23
2018-11-07T10:53:35.990Z,66.47
2018-11-07T10:56:09.678Z,74.97
2018-11-07T10:58:38.727Z,70.53
2018-11-07T11:02:15.367Z,68.13
2018-11-07T11:07:25.681Z,68.23
2018-11-07T11:09:54.114Z,71.53
2018-11-07T11:12:23.162Z,69.43
2018-11-07T11:14:59.543Z,66.17
2018-11-07T11:17:31.812Z,66.97
2018-11-07T11:20:01.164Z,65.60
2018-11-07T11:22:29.878Z,66.80
2018-11-07T11:25:06.172Z,67.80
2018-11-07T11:27:34.774Z,70.47
2018-11-07T11:32:58.064Z,67.97
2018-11-07T11:35:27.041Z,63.37
2018-11-07T11:38:01.089Z,64.10
2018-11-07T11:40:35.928Z,67.90
2018-11-07T11:43:14.742Z,68.60
2018-11-07T11:45:49.259Z,68.43
2018-11-07T11:48:20.643Z,68.53
2018-11-07T11:50:56.258Z,66.23
2018-11-07T11:53:29.882Z,63.07
2018-11-07T11:56:11.369Z,65.47
2018-11-07T11:58:41.902Z,63.67
2018-11-07T12:01:13.758Z,64.60
2018-11-07T12:03:42.137Z,65.47
2018-11-07T12:06:10.978Z,62.40
2018-11-07T12:08:39.235Z,61.73
2018-11-07T12:11:09.022Z,62.60
2018-11-07T12:13:37.646Z,64.60
2018-11-07T12:16:06.902Z,64.23
2018-11-07T12:18:35.697Z,64.80
2018-11-07T12:21:09.661Z,59.33
2018-11-07T12:23:41.947Z,59.90
2018-11-07T12:26:10.046Z,63.57
2018-11-07T12:28:38.579Z,59.77
2018-11-07T12:31:08.150Z,62.47
2018-11-07T12:33:38.342Z,59.07
2018-11-07T12:36:06.563Z,59.80
2018-11-07T12:38:35.991Z,64.43
2018-11-07T12:41:05.453Z,58.50
2018-11-07T12:43:35.008Z,56.93
2018-11-07T12:46:05.918Z,56.33
2018-11-07T12:48:36.527Z,56.40
2018-11-07T12:51:07.061Z,58.57
2018-11-07T12:53:35.941Z,58.27
2018-11-07T12:56:05.690Z,58.80
2018-11-07T12:58:36.692Z,56.67
2018-11-07T13:01:07.427Z,58.10
2018-11-07T13:03:35.517Z,57.87
2018-11-07T13:06:05.391Z,55.60
2018-11-07T13:08:35.727Z,55.60
2018-11-07T13:11:05.185Z,56.53
2018-11-07T13:13:33.445Z,56.43
2018-11-07T13:16:03.843Z,56.30
2018-11-07T13:18:36.697Z,56.57
2018-11-07T13:21:06.073Z,56.80
2018-11-07T13:23:34.160Z,54.40
2018-11-07T13:26:03.029Z,54.00
2018-11-07T13:28:32.017Z,55.30
2018-11-07T13:31:00.731Z,54.60
2018-11-07T13:33:29.645Z,53.60
2018-11-07T13:38:34.877Z,50.33
2018-11-07T13:41:04.264Z,53.20
2018-11-07T13:43:34.524Z,50.47
2018-11-07T13:46:04.398Z,52.80
2018-11-07T13:48:35.282Z,55.53
2018-11-07T13:51:04.973Z,52.87
2018-11-07T13:53:34.281Z,49.17
2018-11-07T13:56:02.716Z,50.10
2018-11-07T13:58:30.805Z,51.10
2018-11-07T14:00:59.882Z,52.90
2018-11-07T14:03:28.724Z,51.63
2018-11-07T14:05:57.745Z,53.30
2018-11-07T14:08:26.800Z,50.27
2018-11-07T14:10:56.478Z,51.40
2018-11-07T14:13:26.094Z,49.17
2018-11-07T14:15:56.563Z,51.43
2018-11-07T14:18:25.434Z,48.10
2018-11-07T14:20:53.517Z,48.87
2018-11-07T14:23:21.720Z,51.87
2018-11-07T14:25:50.523Z,48.17
2018-11-07T14:28:20.335Z,49.30
2018-11-07T14:30:55.618Z,50.17
2018-11-07T14:33:25.670Z,46.47
2018-11-07T14:35:53.850Z,50.17
2018-11-07T14:38:21.872Z,48.27
2018-11-07T14:40:50.607Z,48.53
2018-11-07T14:43:18.949Z,47.83
2018-11-07T14:45:54.629Z,47.77
2018-11-07T14:48:22.609Z,47.80
2018-11-07T14:50:50.760Z,47.90
2018-11-07T14:53:19.294Z,46.10
2018-11-07T14:55:48.450Z,48.67
2018-11-07T14:58:20.192Z,45.37
2018-11-07T15:00:56.773Z,45.40
2018-11-07T15:03:24.949Z,44.90
2018-11-07T15:05:54.698Z,46.47
2018-11-07T15:08:23.340Z,44.73
2018-11-07T15:10:51.815Z,47.63
2018-11-07T15:13:20.406Z,53.40
2018-11-07T15:15:49.507Z,46.60
2018-11-07T15:18:18.453Z,43.53
2018-11-07T15:20:47.324Z,46.10
2018-11-07T15:23:16.023Z,46.80
2018-11-07T15:25:46.908Z,44.27
2018-11-07T15:28:16.731Z,44.50
2018-11-07T15:30:44.670Z,48.67
2018-11-07T15:33:13.172Z,43.93
2018-11-07T15:35:41.287Z,47.77
2018-11-07T15:38:09.476Z,43.33
2018-11-07T15:40:38.031Z,46.53
2018-11-07T15:43:06.748Z,48.77
2018-11-07T15:45:38.236Z,45.97
2018-11-07T15:48:08.750Z,47.90
2018-11-07T15:50:43.174Z,45.37
2018-11-07T15:53:11.996Z,43.70
2018-11-07T15:55:41.199Z,46.87
2018-11-07T15:58:10.126Z,43.23
2018-11-07T16:00:38.552Z,47.67
2018-11-07T16:03:08.873Z,48.60
2018-11-07T16:05:37.562Z,44.60
2018-11-07T16:08:07.104Z,45.77
2018-11-07T16:10:37.356Z,57.97
2018-11-07T16:13:08.092Z,46.30
2018-11-07T16:15:44.956Z,45.17
2018-11-07T16:18:19.301Z,45.67
2018-11-07T16:20:47.756Z,47.30
2018-11-07T16:23:17.346Z,48.80
2018-11-07T16:25:45.948Z,46.47
2018-11-07T16:28:15.496Z,48.50
2018-11-07T16:30:57.099Z,47.50
2018-11-07T16:33:25.477Z,48.10
2018-11-07T16:35:55.580Z,52.33
2018-11-07T16:38:24.555Z,48.10
2018-11-07T16:40:53.174Z,48.13
2018-11-07T16:43:21.997Z,52.50
2018-11-07T16:45:50.960Z,49.67
2018-11-07T16:48:21.836Z,49.33
2018-11-07T16:50:50.786Z,48.67
2018-11-07T16:53:19.904Z,50.20
2018-11-07T16:55:48.467Z,50.60
2018-11-07T16:58:18.112Z,51.07
2018-11-07T17:01:00.777Z,52.93
2018-11-07T17:03:36.118Z,50.37
2018-11-07T17:06:06.842Z,48.80
2018-11-07T17:08:35.744Z,49.30
2018-11-07T17:11:08.005Z,49.33
2018-11-07T17:13:43.204Z,56.37
2018-11-07T17:16:11.336Z,53.03
2018-11-07T17:18:41.666Z,52.30
2018-11-07T17:21:10.177Z,53.63
2018-11-07T17:23:44.394Z,50.30
2018-11-07T17:26:12.822Z,50.83
2018-11-07T17:28:42.495Z,52.63
2018-11-07T17:31:10.716Z,53.10
2018-11-07T17:33:41.956Z,49.67
2018-11-07T17:36:12.599Z,50.60
2018-11-07T17:38:42.856Z,51.63
2018-11-07T17:41:15.796Z,54.63
2018-11-07T17:43:46.509Z,55.67
2018-11-07T17:46:24.704Z,56.87
2018-11-07T17:48:56.748Z,57.83
2018-11-07T17:51:26.282Z,55.40
2018-11-07T17:53:56.436Z,58.77
2018-11-07T17:56:24.871Z,60.07
2018-11-07T17:58:52.805Z,53.27
2018-11-07T18:01:21.031Z,55.77
2018-11-07T18:03:49.584Z,57.60
2018-11-07T18:06:25.275Z,56.03
2018-11-07T18:09:07.940Z,62.03
2018-11-07T18:11:36.158Z,60.30
2018-11-07T18:14:05.916Z,60.40
2018-11-07T18:16:33.878Z,55.60
2018-11-07T18:19:04.157Z,59.77
2018-11-07T18:21:36.941Z,58.70
2018-11-07T18:24:11.156Z,60.63
2018-11-07T18:26:43.842Z,61.17
2018-11-07T18:29:14.896Z,64.53
2018-11-07T18:31:48.260Z,57.73
2018-11-07T18:34:16.717Z,63.20
2018-11-07T18:36:55.925Z,59.63
2018-11-07T18:39:25.391Z,57.80
2018-11-07T18:41:53.576Z,61.47
2018-11-07T18:44:22.193Z,58.10
2018-11-07T18:46:51.718Z,58.47
2018-11-07T18:49:22.807Z,56.73
2018-11-07T18:51:58.923Z,56.07
2018-11-07T18:54:39.199Z,55.47
2018-11-07T18:57:22.165Z,55.63
2018-11-07T18:59:52.260Z,57.60
2018-11-07T19:02:24.631Z,54.53
2018-11-07T19:07:35.791Z,54.03
2018-11-07T19:10:06.863Z,56.17
2018-11-07T19:12:44.078Z,56.00
2018-11-07T19:18:15.471Z,56.73
2018-11-07T19:20:54.320Z,54.40
2018-11-07T19:23:25.632Z,52.80
2018-11-07T19:25:58.679Z,58.47
2018-11-07T19:28:34.732Z,52.20
2018-11-07T19:31:06.517Z,55.23
2018-11-07T19:33:39.097Z,56.00
2018-11-07T19:36:11.420Z,55.80
2018-11-07T19:38:49.066Z,53.80
2018-11-07T19:41:26.665Z,56.33
2018-11-07T19:43:54.608Z,54.30
2018-11-07T19:46:35.190Z,58.00
2018-11-07T19:54:29.009Z,56.17
2018-11-07T19:59:38.599Z,55.47
2018-11-07T20:02:17.793Z,55.70
2018-11-07T20:04:50.951Z,56.40
2018-11-07T20:07:23.978Z,55.30
2018-11-07T20:09:56.069Z,56.60
2018-11-07T20:12:37.910Z,57.40
2018-11-07T20:15:07.236Z,55.63
2018-11-07T20:17:35.829Z,57.10
2018-11-07T20:20:06.343Z,53.10
2018-11-07T20:22:41.247Z,54.60
2018-11-07T20:25:11.393Z,55.60
2018-11-07T20:27:53.414Z,56.03
2018-11-07T20:30:22.784Z,62.10
2018-11-07T20:32:59.616Z,56.13
2018-11-07T20:35:37.113Z,56.90
2018-11-07T20:38:06.459Z,57.40
2018-11-07T20:40:35.331Z,54.27
2018-11-07T20:43:06.685Z,55.10
2018-11-07T20:45:51.807Z,53.63
2018-11-07T20:48:21.226Z,53.10
2018-11-07T20:50:50.100Z,55.73
2018-11-07T20:56:07.217Z,56.80
2018-11-07T21:01:10.870Z,54.90
2018-11-07T21:03:39.153Z,54.17
2018-11-07T21:06:10.730Z,54.10
2018-11-07T21:08:44.415Z,54.67
2018-11-07T21:11:14.753Z,53.83
2018-11-07T21:13:45.121Z,53.43
2018-11-07T21:16:13.076Z,55.87
2018-11-07T21:18:47.601Z,54.27
2018-11-07T21:21:18.146Z,49.80
2018-11-07T21:23:47.383Z,53.73
2018-11-07T21:26:18.206Z,49.83
2018-11-07T21:28:46.876Z,52.27
2018-11-07T21:34:08.781Z,55.70
2018-11-07T21:36:45.360Z,52.67
2018-11-07T21:39:15.894Z,54.00
2018-11-07T21:41:52.550Z,55.03
2018-11-07T21:44:25.226Z,50.13
2018-11-07T21:46:54.238Z,53.50
2018-11-07T21:49:22.525Z,50.70
2018-11-07T21:51:51.059Z,51.90
2018-11-07T21:54:20.281Z,54.90
2018-11-07T21:56:50.165Z,50.70
2018-11-07T21:59:18.566Z,52.87
2018-11-07T22:01:59.258Z,53.60
2018-11-07T22:04:30.724Z,49.90
2018-11-07T22:07:03.583Z,52.90
2018-11-07T22:09:31.737Z,51.00
2018-11-07T22:14:36.385Z,52.03
2018-11-07T22:17:04.383Z,54.37
2018-11-07T22:19:32.895Z,57.57
2018-11-07T22:22:02.754Z,54.97
2018-11-07T22:24:33.377Z,56.70
2018-11-07T22:27:07.214Z,55.30
2018-11-07T22:29:36.702Z,55.00
2018-11-07T22:32:05.102Z,60.03
2018-11-07T22:34:34.299Z,54.90
2018-11-07T22:37:02.359Z,58.83
2018-11-07T22:39:30.250Z,61.57
2018-11-07T22:41:58.458Z,57.60
2018-11-07T22:44:26.391Z,59.80
2018-11-07T22:46:56.981Z,60.17
2018-11-07T22:49:29.188Z,58.00
2018-11-07T22:51:57.942Z,61.27
2018-11-07T22:54:26.643Z,60.47
2018-11-07T22:56:54.640Z,62.57
2018-11-07T22:59:22.836Z,59.20
2018-11-07T23:01:50.880Z,60.77
2018-11-07T23:04:18.786Z,62.63
2018-11-07T23:06:46.850Z,59.70
2018-11-07T23:09:15.855Z,61.80
2018-11-07T23:11:44.524Z,62.03
2018-11-07T23:14:13.674Z,63.23
2018-11-07T23:16:44.136Z,61.30
2018-11-07T23:19:15.555Z,63.57
2018-11-07T23:21:43.773Z,63.20
2018-11-07T23:24:11.936Z,68.50
2018-11-07T23:26:40.149Z,64.73
2018-11-07T23:29:08.097Z,65.70
2018-11-07T23:31:37.380Z,64.57
2018-11-07T23:34:06.901Z,70.40
2018-11-07T23:36:35.139Z,71.53
2018-11-07T23:39:05.659Z,69.70
2018-11-07T23:41:33.583Z,77.40
2018-11-07T23:44:01.629Z,67.77
2018-11-07T23:46:29.815Z,70.63
2018-11-07T23:48:58.563Z,66.60
2018-11-07T23:51:26.806Z,69.10
2018-11-07T23:53:54.979Z,70.00
2018-11-07T23:56:22.866Z,69.80
2018-11-07T23:58:50.849Z,70.27
